Введите код ICAO:



Ukraine (UA) ЗАПОРОЖЬЕ (UKDE)

Ukraine (UA) ЗАПОРОЖЬЕ (UKDE)
Архив погоды
 широта: 47-52N; долгота: 035-19E
высота над уровнем моря: 113 м
Фактическая погодаПрогноз погоды
Дата: 18 октября 2018
Время: 14:00 UTC
Ветер: 060°-4 м/с
Направление ветра меняется от 030° до 100°
Погода хорошая
Температура: +23°C
Точка   росы: +6°C
Влажность: 33 %
QNH: 1020 гПа
Состояние ВПП:
     ВПП 02 (правая): чистая, коэффициент сцепления 0.70
Прогноз: без сущеcтвенных изменений
Прогноз получен: 18 октября 2018, в 11:02 UTC
Прогноз на 18 октября с 12.00 до 21.00 UTC
Ветер: 070°-3 м/с
Погода хорошая
Температура MAX:  +25°C (18 октября в 12 UTC)
Температура MIN:   +16°C (18 октября в 21 UTC)
 
METAR UKDE 181400Z 06004MPS 030V100 CAVOK 23/06 Q1020 R02R/CLRD70 NOSIGTAF UKDE 181102Z 1812/1821 07003MPS CAVOK TX25/1812Z TN16/1821Z

Для получения погоды по необходимым аэродромам введите 4-буквенный код ICAO и нажмите ЗАПРОС.
Коды аэродромов можно скачать здесь.
Если погода отображается, а названия аэропорта нет, сообщите нам и мы добавим его в список.
В случие обнаружения некорректной раскодировки, сообщите нам и ошибка будет исправлена.
Эта информация взята из открытых источников и должна использоваться исключительно в ознакомительных целях. Не используйте ее для планирования полетов-перелетов или для мероприятий, где возможны материальные потери или человеческие жертвы. Для этого обращайтесь в официальные структуры.